Time;durP1;ratioP1;P1;durP2;ratioP2;P2;SDS_P1;SDS_P2;PMS_P1;PMS_P2;Temp;Humidity;BMP_temperature;BMP_pressure;BME280_temperature;BME280_humidity;BME280_pressure;Samples;Min_cycle;Max_cycle;Signal;HPM_P1;HPM_P2
2023/01/11 00:00:45;;;;;;;7.23;5.23;;;12.40;99.90;;;;;;6100572;23;20175;-90
2023/01/11 00:03:14;;;;;;;7.53;5.53;;;12.40;99.90;;;;;;6124533;23;20181;-91
2023/01/11 00:05:43;;;;;;;7.40;5.07;;;12.40;99.90;;;;;;6103108;23;20224;-89
2023/01/11 00:08:11;;;;;;;8.17;5.13;;;12.40;99.90;;;;;;6102529;23;20168;-92
2023/01/11 00:10:40;;;;;;;7.80;5.70;;;12.40;99.90;;;;;;6101677;23;20585;-92
2023/01/11 00:13:07;;;;;;;8.23;6.00;;;12.40;99.90;;;;;;6101553;23;20223;-91
2023/01/11 00:15:36;;;;;;;6.60;5.17;;;12.30;99.90;;;;;;6103733;23;20203;-90
2023/01/11 00:18:03;;;;;;;7.47;5.57;;;12.30;99.90;;;;;;6100970;23;20251;-90
2023/01/11 00:20:32;;;;;;;7.90;5.10;;;12.30;99.90;;;;;;6101786;23;20161;-91
2023/01/11 00:23:00;;;;;;;6.70;5.50;;;12.30;99.90;;;;;;6101746;23;20235;-92
2023/01/11 00:25:27;;;;;;;6.33;5.17;;;12.20;99.90;;;;;;6101799;23;20172;-95
2023/01/11 00:27:55;;;;;;;8.87;5.33;;;12.30;99.90;;;;;;6103225;23;20243;-90
2023/01/11 00:30:22;;;;;;;7.27;5.57;;;12.30;99.90;;;;;;6100277;23;20263;-92
2023/01/11 00:32:59;;;;;;;5.83;5.20;;;12.30;99.90;;;;;;6102616;23;20231;-93
2023/01/11 00:35:29;;;;;;;6.13;5.30;;;12.30;99.90;;;;;;6101890;23;20697;-91
2023/01/11 00:37:56;;;;;;;7.40;5.80;;;12.30;99.90;;;;;;6103186;23;20240;-92
2023/01/11 00:40:23;;;;;;;6.57;5.03;;;12.30;99.90;;;;;;6101611;23;20265;-90
2023/01/11 00:48:44;;;;;;;7.40;5.30;;;12.30;99.90;;;;;;6119669;23;20161;-88
2023/01/11 00:51:10;;;;;;;7.13;5.47;;;12.30;99.90;;;;;;6127266;23;20203;-86
2023/01/11 00:53:37;;;;;;;6.37;5.33;;;12.30;99.90;;;;;;6126714;23;20266;-90
2023/01/11 00:56:04;;;;;;;10.37;5.40;;;12.30;99.90;;;;;;6102886;23;20858;-87
2023/01/11 00:58:30;;;;;;;8.07;5.70;;;12.40;99.90;;;;;;6101315;23;20165;-86
2023/01/11 01:00:57;;;;;;;7.10;5.40;;;12.40;99.90;;;;;;6125908;23;20161;-91
2023/01/11 01:03:23;;;;;;;9.23;5.37;;;12.40;99.90;;;;;;6102892;23;20240;-91
2023/01/11 01:05:54;;;;;;;7.33;5.77;;;12.40;99.90;;;;;;6101772;23;20208;-89
2023/01/11 01:08:28;;;;;;;6.47;5.50;;;12.40;99.90;;;;;;6102600;23;20187;-92
2023/01/11 01:10:54;;;;;;;8.57;5.87;;;12.40;99.90;;;;;;6126996;23;20153;-91
2023/01/11 01:16:07;;;;;;;9.00;5.47;;;12.40;99.90;;;;;;6127086;23;20161;-91
2023/01/11 01:18:33;;;;;;;6.33;5.50;;;12.40;99.90;;;;;;6102975;23;20165;-89
2023/01/11 01:21:03;;;;;;;8.13;5.53;;;12.40;99.90;;;;;;6128225;23;20211;-91
2023/01/11 01:23:29;;;;;;;7.77;5.93;;;12.30;99.90;;;;;;6102813;23;20570;-92
2023/01/11 01:25:56;;;;;;;7.03;5.10;;;12.40;99.90;;;;;;6127512;23;20240;-87
2023/01/11 01:28:24;;;;;;;6.53;5.40;;;12.40;99.90;;;;;;6102512;23;20199;-91
2023/01/11 01:30:56;;;;;;;6.37;5.37;;;12.40;99.90;;;;;;6102574;23;20216;-83
2023/01/11 01:33:23;;;;;;;7.30;5.40;;;12.40;99.90;;;;;;6102189;23;20161;-91
2023/01/11 01:35:50;;;;;;;6.83;5.57;;;12.40;99.90;;;;;;6102032;23;20203;-91
2023/01/11 01:38:18;;;;;;;9.30;5.33;;;12.40;99.90;;;;;;6103224;23;20160;-92
2023/01/11 01:40:48;;;;;;;8.10;5.50;;;12.40;99.90;;;;;;6101481;23;20588;-90
2023/01/11 01:43:17;;;;;;;7.03;5.50;;;12.40;99.90;;;;;;6103071;23;20192;-92
2023/01/11 01:45:44;;;;;;;7.77;5.60;;;12.40;99.90;;;;;;6101594;23;20573;-91
2023/01/11 01:48:20;;;;;;;8.83;6.00;;;12.40;99.90;;;;;;6100290;23;20169;-83
2023/01/11 01:50:52;;;;;;;9.87;5.83;;;12.30;99.90;;;;;;6100041;23;20195;-92
2023/01/11 01:53:30;;;;;;;6.43;5.60;;;12.40;99.90;;;;;;6100764;23;20322;-93
2023/01/11 01:56:00;;;;;;;7.40;5.73;;;12.40;99.90;;;;;;6101290;23;20164;-95
2023/01/11 01:58:41;;;;;;;7.70;5.37;;;12.50;99.90;;;;;;6125150;23;20171;-88
2023/01/11 02:04:30;;;;;;;5.93;5.13;;;12.40;99.90;;;;;;6124662;23;20799;-93
2023/01/11 02:07:05;;;;;;;7.07;5.67;;;12.40;99.90;;;;;;6101578;23;20265;-87
2023/01/11 02:09:54;;;;;;;6.50;5.00;;;12.30;99.90;;;;;;6100967;23;20719;-90
2023/01/11 02:12:23;;;;;;;10.27;5.90;;;12.30;99.90;;;;;;6125366;23;20196;-85
2023/01/11 02:14:53;;;;;;;9.67;5.53;;;12.30;99.90;;;;;;6099960;23;20164;-90
2023/01/11 02:17:20;;;;;;;8.37;5.63;;;12.40;99.90;;;;;;6123433;23;20211;-81
2023/01/11 02:20:59;;;;;;;9.30;5.43;;;12.40;99.90;;;;;;6123832;23;20222;-85
2023/01/11 02:23:43;;;;;;;8.40;5.50;;;12.40;99.90;;;;;;5977839;23;21045;-89
2023/01/11 02:27:00;;;;;;;6.40;5.50;;;12.50;99.90;;;;;;5980160;23;20160;-83
2023/01/11 02:30:12;;;;;;;8.10;5.63;;;12.50;99.90;;;;;;6092258;23;20668;-88
2023/01/11 02:33:16;;;;;;;6.43;5.23;;;12.50;99.90;;;;;;6123953;23;20157;-83
2023/01/11 02:36:59;;;;;;;6.43;5.13;;;12.60;99.90;;;;;;5980133;23;20213;-87
2023/01/11 02:39:39;;;;;;;6.67;5.30;;;12.60;99.90;;;;;;6052681;23;20164;-90
2023/01/11 02:45:41;;;;;;;7.20;5.67;;;12.60;99.90;;;;;;6123819;23;20184;-90
2023/01/11 02:48:28;;;;;;;7.73;5.40;;;12.60;99.90;;;;;;6100347;23;20453;-87
2023/01/11 02:51:12;;;;;;;9.60;5.27;;;12.70;99.90;;;;;;6099708;23;20161;-89
2023/01/11 02:53:55;;;;;;;5.83;5.10;;;12.70;99.90;;;;;;6100565;23;20212;-86
2023/01/11 02:56:28;;;;;;;9.23;5.40;;;12.70;99.90;;;;;;6100764;23;20203;-80
2023/01/11 02:58:57;;;;;;;7.60;5.33;;;12.80;99.90;;;;;;6099327;23;20212;-84
2023/01/11 03:01:24;;;;;;;7.73;5.17;;;12.80;99.90;;;;;;6125478;23;20699;-92
2023/01/11 03:03:52;;;;;;;8.73;5.20;;;12.80;99.90;;;;;;6100334;23;20185;-85
2023/01/11 03:06:26;;;;;;;12.07;5.23;;;12.80;99.90;;;;;;6101966;23;20160;-86
2023/01/11 03:09:14;;;;;;;7.40;5.03;;;12.90;99.90;;;;;;6163321;23;20172;-90
2023/01/11 03:12:58;;;;;;;6.40;5.53;;;12.80;99.90;;;;;;6161228;23;20390;-89
2023/01/11 03:16:07;;;;;;;6.27;5.33;;;12.80;99.90;;;;;;5981896;23;20524;-85
2023/01/11 03:19:15;;;;;;;6.20;4.60;;;12.80;99.90;;;;;;6128017;23;20196;-88
2023/01/11 03:22:09;;;;;;;5.57;4.63;;;12.80;99.90;;;;;;6103891;23;20168;-92
2023/01/11 03:25:23;;;;;;;6.57;5.37;;;12.80;99.90;;;;;;6103475;23;20168;-90
2023/01/11 03:28:36;;;;;;;6.37;4.93;;;12.80;99.90;;;;;;6100836;23;20195;-86
2023/01/11 03:31:21;;;;;;;6.77;5.03;;;12.80;99.90;;;;;;6102341;23;20189;-86
2023/01/11 03:34:18;;;;;;;7.27;4.90;;;12.80;99.90;;;;;;6103030;23;20161;-86
2023/01/11 03:37:34;;;;;;;6.77;5.07;;;12.90;99.90;;;;;;6101630;23;20584;-88
2023/01/11 03:40:06;;;;;;;8.10;5.00;;;12.80;99.90;;;;;;6093696;23;20247;-87
2023/01/11 03:43:09;;;;;;;7.80;4.80;;;12.90;99.90;;;;;;6126478;23;20372;-89
2023/01/11 03:45:36;;;;;;;7.50;5.13;;;12.90;99.90;;;;;;6125978;23;20157;-90
2023/01/11 03:48:09;;;;;;;5.97;5.07;;;12.90;99.90;;;;;;6127687;23;20165;-86
2023/01/11 03:50:42;;;;;;;7.07;5.00;;;13.00;99.90;;;;;;6101590;23;20175;-85
2023/01/11 03:53:14;;;;;;;5.33;4.43;;;13.00;99.90;;;;;;6101162;23;20168;-87
2023/01/11 03:55:48;;;;;;;6.43;4.50;;;13.00;99.90;;;;;;6101557;23;20240;-82
2023/01/11 03:58:15;;;;;;;12.37;4.93;;;13.00;99.90;;;;;;6101881;23;20184;-84
2023/01/11 04:00:44;;;;;;;7.83;4.90;;;13.00;99.90;;;;;;6100132;23;20624;-89
2023/01/11 04:03:11;;;;;;;6.93;4.97;;;13.00;99.90;;;;;;6124528;23;20239;-87
2023/01/11 04:05:47;;;;;;;9.33;4.90;;;12.90;99.90;;;;;;6101310;23;20165;-93
2023/01/11 04:08:19;;;;;;;5.70;4.80;;;13.00;99.90;;;;;;6126446;23;20161;-92
2023/01/11 04:10:47;;;;;;;6.53;5.13;;;13.00;99.90;;;;;;6102316;23;20168;-88
2023/01/11 04:13:13;;;;;;;7.50;5.07;;;12.90;99.90;;;;;;6125428;23;20161;-91
2023/01/11 04:15:40;;;;;;;10.23;5.47;;;12.90;99.90;;;;;;6125728;23;20191;-86
2023/01/11 04:18:06;;;;;;;5.47;4.87;;;12.90;99.90;;;;;;6150754;23;20907;-85
2023/01/11 04:20:39;;;;;;;7.60;4.97;;;12.90;99.90;;;;;;6151247;23;20169;-87
2023/01/11 04:23:08;;;;;;;8.83;4.57;;;12.90;99.90;;;;;;6099998;23;20188;-90
2023/01/11 04:25:35;;;;;;;6.80;5.03;;;12.80;99.90;;;;;;6101153;23;20679;-85
2023/01/11 04:28:01;;;;;;;5.53;4.63;;;12.80;99.90;;;;;;6100526;23;20525;-80
2023/01/11 04:30:27;;;;;;;6.37;5.17;;;12.80;99.90;;;;;;6124322;23;20172;-90
2023/01/11 04:32:57;;;;;;;7.23;4.50;;;12.70;99.90;;;;;;6126470;23;20161;-91
2023/01/11 04:35:28;;;;;;;15.37;4.97;;;12.70;99.90;;;;;;6102699;23;20161;-88
2023/01/11 04:37:57;;;;;;;6.77;5.03;;;12.70;99.90;;;;;;6099704;23;20735;-88
2023/01/11 04:40:25;;;;;;;8.97;5.17;;;12.70;99.90;;;;;;6150244;23;20557;-85
2023/01/11 04:42:51;;;;;;;6.53;4.90;;;12.70;99.90;;;;;;6101473;23;20197;-84
2023/01/11 04:45:17;;;;;;;6.97;4.80;;;12.70;99.90;;;;;;6150253;23;20163;-90
2023/01/11 04:47:44;;;;;;;6.00;5.17;;;12.70;99.90;;;;;;6125742;23;20191;-86
2023/01/11 04:50:13;;;;;;;6.07;4.70;;;12.70;99.90;;;;;;6102366;23;20156;-88
2023/01/11 04:52:40;;;;;;;6.10;5.20;;;12.70;99.90;;;;;;6100905;23;20494;-89
2023/01/11 04:55:08;;;;;;;6.57;4.90;;;12.70;99.90;;;;;;6125330;23;20485;-89
2023/01/11 04:57:38;;;;;;;7.17;4.67;;;12.70;99.90;;;;;;6125130;23;20165;-86
2023/01/11 05:00:09;;;;;;;7.13;4.60;;;12.70;99.90;;;;;;6125774;23;20698;-89
2023/01/11 05:02:39;;;;;;;6.43;4.90;;;12.70;99.90;;;;;;6100141;23;20188;-83
2023/01/11 05:05:10;;;;;;;6.83;4.80;;;12.70;99.90;;;;;;6099169;23;20168;-87
2023/01/11 05:07:38;;;;;;;5.90;4.47;;;12.70;99.90;;;;;;6124216;23;20157;-87
2023/01/11 05:10:05;;;;;;;6.47;4.67;;;12.70;99.90;;;;;;6101366;23;20165;-89
2023/01/11 05:12:32;;;;;;;5.43;4.40;;;12.80;99.90;;;;;;6125997;23;20165;-86
2023/01/11 05:15:03;;;;;;;7.43;4.80;;;12.70;99.90;;;;;;6102252;23;20184;-87
2023/01/11 05:17:30;;;;;;;5.87;4.50;;;12.80;99.90;;;;;;6100846;23;20161;-83
2023/01/11 05:19:56;;;;;;;6.47;4.80;;;12.80;99.90;;;;;;6126103;23;20185;-86
2023/01/11 05:22:24;;;;;;;7.07;5.50;;;12.70;99.90;;;;;;6102471;23;20184;-92
2023/01/11 05:24:53;;;;;;;5.93;4.33;;;12.70;99.90;;;;;;6102382;23;20208;-91
2023/01/11 05:27:20;;;;;;;4.87;4.33;;;12.70;99.90;;;;;;6101769;23;20165;-85
2023/01/11 05:29:50;;;;;;;7.07;5.30;;;12.70;99.90;;;;;;6124786;23;20159;-89
2023/01/11 05:32:16;;;;;;;9.93;5.20;;;12.70;99.90;;;;;;6099762;23;20165;-83
2023/01/11 05:34:43;;;;;;;5.80;4.63;;;12.70;99.90;;;;;;6100551;23;20169;-93
2023/01/11 05:37:11;;;;;;;5.33;4.83;;;12.70;99.90;;;;;;6101647;23;20161;-92
2023/01/11 05:39:38;;;;;;;5.23;4.63;;;12.70;99.90;;;;;;6101207;23;20161;-86
2023/01/11 05:42:05;;;;;;;7.00;5.03;;;12.70;99.90;;;;;;6099589;23;20173;-81
2023/01/11 05:47:16;;;;;;;6.83;4.80;;;12.70;99.90;;;;;;6124586;23;20168;-95
2023/01/11 05:49:42;;;;;;;7.17;4.90;;;12.70;99.90;;;;;;6100552;23;20196;-83
2023/01/11 05:52:11;;;;;;;9.17;4.97;;;12.70;99.90;;;;;;6100951;23;20180;-89
2023/01/11 05:54:39;;;;;;;7.50;4.60;;;12.80;99.90;;;;;;6099873;23;20172;-87
2023/01/11 05:57:09;;;;;;;5.27;4.60;;;12.80;99.90;;;;;;6100203;23;20212;-87
2023/01/11 05:59:37;;;;;;;7.10;4.97;;;12.80;99.90;;;;;;6122859;23;20160;-83
2023/01/11 06:02:03;;;;;;;7.13;5.10;;;12.80;99.90;;;;;;6098472;23;20157;-90
2023/01/11 06:04:34;;;;;;;9.20;4.57;;;12.80;99.90;;;;;;6123680;23;20164;-87
2023/01/11 06:07:00;;;;;;;7.37;4.70;;;12.80;99.90;;;;;;6099048;23;20255;-91
2023/01/11 06:09:28;;;;;;;5.53;4.57;;;12.80;99.90;;;;;;6124328;23;20203;-86
2023/01/11 06:11:59;;;;;;;7.53;5.17;;;12.80;99.90;;;;;;6125053;23;20592;-84
2023/01/11 06:14:29;;;;;;;7.03;5.27;;;12.80;99.90;;;;;;6125011;23;20153;-86
2023/01/11 06:16:57;;;;;;;5.83;4.60;;;12.90;99.90;;;;;;6148524;23;20193;-89
2023/01/11 06:19:23;;;;;;;6.00;4.60;;;12.80;99.90;;;;;;6124433;23;20160;-89
2023/01/11 06:21:49;;;;;;;6.03;5.00;;;12.80;99.90;;;;;;6098606;23;20188;-89
2023/01/11 06:24:16;;;;;;;7.97;5.17;;;12.90;99.90;;;;;;6099607;23;20191;-85
2023/01/11 06:26:42;;;;;;;7.33;4.60;;;12.90;99.90;;;;;;6123529;23;20161;-88
2023/01/11 06:29:08;;;;;;;5.43;4.80;;;12.80;99.90;;;;;;6122797;23;20161;-88
2023/01/11 06:31:35;;;;;;;31.30;6.37;;;12.80;99.90;;;;;;6096823;23;20239;-90
2023/01/11 06:34:04;;;;;;;6.37;5.10;;;12.90;99.90;;;;;;6100116;23;20199;-84
2023/01/11 06:36:31;;;;;;;6.30;5.07;;;12.90;99.90;;;;;;6098668;23;20161;-88
2023/01/11 06:38:59;;;;;;;5.67;4.90;;;12.90;99.90;;;;;;6147470;23;20168;-87
2023/01/11 06:41:27;;;;;;;7.50;5.50;;;12.90;99.90;;;;;;6099062;23;20165;-87
2023/01/11 06:43:54;;;;;;;5.80;4.97;;;12.90;99.90;;;;;;6100871;23;20223;-86
2023/01/11 06:46:20;;;;;;;8.10;4.90;;;12.90;99.90;;;;;;6125165;23;20157;-87
2023/01/11 06:48:47;;;;;;;7.07;5.33;;;13.00;99.90;;;;;;6161421;23;20308;-87
2023/01/11 06:51:18;;;;;;;5.67;4.77;;;13.00;99.90;;;;;;6100222;23;20667;-87
2023/01/11 06:53:45;;;;;;;6.00;5.07;;;13.00;99.90;;;;;;6125089;23;20173;-94
2023/01/11 06:56:16;;;;;;;8.23;4.53;;;13.00;99.90;;;;;;6100768;23;20817;-87
2023/01/11 06:58:42;;;;;;;5.73;4.73;;;13.10;99.90;;;;;;6100134;23;20210;-88
2023/01/11 07:01:08;;;;;;;5.20;4.70;;;13.10;99.90;;;;;;6124579;23;20171;-89
2023/01/11 07:03:38;;;;;;;6.73;4.83;;;13.10;99.90;;;;;;6101018;23;20185;-83
2023/01/11 07:06:09;;;;;;;8.13;4.87;;;13.20;99.90;;;;;;6103675;23;20161;-85
2023/01/11 07:08:38;;;;;;;6.10;4.97;;;13.20;99.90;;;;;;6126042;23;20236;-91
2023/01/11 07:11:06;;;;;;;6.13;5.03;;;13.30;99.90;;;;;;6102024;23;20662;-92
2023/01/11 07:13:34;;;;;;;5.37;4.87;;;13.40;99.90;;;;;;6102286;23;20165;-84
2023/01/11 07:16:03;;;;;;;6.50;5.30;;;13.40;99.90;;;;;;6101960;23;20165;-87
2023/01/11 07:18:30;;;;;;;5.83;4.87;;;13.40;99.90;;;;;;6103576;23;20153;-89
2023/01/11 07:21:01;;;;;;;6.23;5.17;;;13.40;99.90;;;;;;6102913;23;20167;-89
2023/01/11 07:23:27;;;;;;;5.70;4.73;;;13.50;99.90;;;;;;6100861;23;20196;-87
2023/01/11 07:25:54;;;;;;;11.10;5.40;;;13.50;99.90;;;;;;6103005;23;20239;-89
2023/01/11 07:28:27;;;;;;;5.37;4.87;;;13.60;99.90;;;;;;6126691;23;20573;-88
2023/01/11 07:30:57;;;;;;;7.00;5.57;;;13.60;99.90;;;;;;6125388;23;20472;-86
2023/01/11 07:33:24;;;;;;;6.00;5.30;;;13.70;99.90;;;;;;6102479;23;20260;-91
2023/01/11 07:35:55;;;;;;;5.97;5.13;;;13.60;99.90;;;;;;6101147;23;20165;-81
2023/01/11 07:38:22;;;;;;;11.63;5.63;;;13.70;99.90;;;;;;6161312;23;20161;-91
2023/01/11 07:40:48;;;;;;;7.47;5.20;;;13.70;99.90;;;;;;6100110;23;20165;-87
2023/01/11 07:43:15;;;;;;;9.30;5.17;;;13.70;99.90;;;;;;6160787;23;20197;-85
2023/01/11 07:45:47;;;;;;;9.20;5.57;;;13.70;99.90;;;;;;6099474;23;20485;-84
2023/01/11 07:48:19;;;;;;;5.77;5.00;;;13.80;99.90;;;;;;6099054;23;20164;-85
2023/01/11 07:50:49;;;;;;;6.93;5.20;;;13.90;99.90;;;;;;6123579;23;20789;-89
2023/01/11 07:53:17;;;;;;;6.23;5.43;;;13.80;99.90;;;;;;6126047;23;20160;-87
2023/01/11 07:55:47;;;;;;;6.97;4.87;;;13.90;99.90;;;;;;6101432;23;20778;-84
2023/01/11 07:58:16;;;;;;;6.90;4.90;;;13.90;99.90;;;;;;6125330;23;20157;-84
2023/01/11 08:00:43;;;;;;;9.60;5.33;;;13.90;99.90;;;;;;6123188;23;20183;-86
2023/01/11 08:03:12;;;;;;;6.60;5.07;;;13.80;99.90;;;;;;6144343;23;20207;-90
2023/01/11 08:05:39;;;;;;;6.13;5.30;;;13.90;99.90;;;;;;6101041;23;20164;-85
2023/01/11 08:08:06;;;;;;;7.57;4.97;;;13.90;99.90;;;;;;6098524;23;20161;-83
2023/01/11 08:10:35;;;;;;;11.43;4.93;;;14.00;99.90;;;;;;6099766;23;20161;-86
2023/01/11 08:15:48;;;;;;;6.03;4.77;;;14.10;99.90;;;;;;6117701;23;20393;-86
2023/01/11 08:18:15;;;;;;;6.90;5.90;;;14.10;99.90;;;;;;6118804;23;20683;-86
2023/01/11 08:20:42;;;;;;;6.70;5.37;;;14.10;99.90;;;;;;6118903;23;20220;-86
2023/01/11 08:23:09;;;;;;;6.30;5.30;;;14.10;99.90;;;;;;6094620;23;20652;-90
2023/01/11 08:25:36;;;;;;;6.57;5.27;;;14.10;99.90;;;;;;6094059;23;20161;-82
2023/01/11 08:28:05;;;;;;;6.47;5.20;;;14.10;99.90;;;;;;6096394;23;20219;-87
2023/01/11 08:30:33;;;;;;;7.83;5.10;;;14.10;99.90;;;;;;6096666;23;20203;-86
2023/01/11 08:33:04;;;;;;;6.27;5.30;;;14.20;99.90;;;;;;6121404;23;20163;-89
2023/01/11 08:35:37;;;;;;;6.27;5.37;;;14.20;99.90;;;;;;6095414;23;20169;-85
2023/01/11 08:38:03;;;;;;;7.77;5.67;;;14.20;99.90;;;;;;6096282;23;20183;-84
2023/01/11 08:40:30;;;;;;;6.50;5.50;;;14.20;99.90;;;;;;6092929;23;20647;-83
2023/01/11 08:42:57;;;;;;;8.70;5.83;;;14.10;99.90;;;;;;6095529;23;20196;-82
2023/01/11 08:45:25;;;;;;;7.50;5.93;;;14.10;99.90;;;;;;6145232;23;20184;-88
2023/01/11 08:47:54;;;;;;;7.53;6.40;;;14.00;99.90;;;;;;6098980;23;20216;-85
2023/01/11 08:50:22;;;;;;;7.87;5.37;;;13.90;99.90;;;;;;6122159;23;20593;-88
2023/01/11 08:52:50;;;;;;;13.57;5.83;;;13.90;99.90;;;;;;6095656;23;20161;-89
2023/01/11 08:55:17;;;;;;;7.33;6.13;;;13.90;99.90;;;;;;6095081;23;20164;-83
2023/01/11 08:57:43;;;;;;;12.37;5.63;;;13.80;99.90;;;;;;6096302;23;20168;-89
2023/01/11 09:00:12;;;;;;;7.77;6.50;;;13.80;99.90;;;;;;6096904;23;20227;-90
2023/01/11 09:02:41;;;;;;;9.10;6.67;;;13.70;99.90;;;;;;6119894;23;20300;-85
2023/01/11 09:05:09;;;;;;;9.67;7.20;;;13.60;99.90;;;;;;6096273;23;20224;-89
2023/01/11 09:07:35;;;;;;;7.87;6.73;;;13.60;99.90;;;;;;6117667;23;20517;-86
2023/01/11 09:10:02;;;;;;;10.33;7.00;;;13.50;99.90;;;;;;6095960;23;20157;-82
2023/01/11 09:12:31;;;;;;;11.73;7.07;;;13.40;99.90;;;;;;6091793;23;20175;-86
2023/01/11 09:14:58;;;;;;;7.97;6.90;;;13.40;99.90;;;;;;6091876;23;20160;-85
2023/01/11 09:17:25;;;;;;;8.60;7.00;;;13.40;99.90;;;;;;6095310;23;20164;-84
2023/01/11 09:19:51;;;;;;;8.93;7.07;;;13.40;99.90;;;;;;6153458;23;20165;-86
2023/01/11 09:22:20;;;;;;;10.77;7.50;;;13.40;99.90;;;;;;6117351;23;20188;-88
2023/01/11 09:24:47;;;;;;;7.77;6.97;;;13.30;99.90;;;;;;6091978;23;20188;-88
2023/01/11 09:27:15;;;;;;;8.10;6.57;;;13.40;99.90;;;;;;6119178;23;20157;-89
2023/01/11 09:29:42;;;;;;;9.07;7.57;;;13.40;99.90;;;;;;6095182;23;20155;-87
2023/01/11 09:32:09;;;;;;;10.03;6.83;;;13.40;99.90;;;;;;6094382;23;20555;-87
2023/01/11 09:34:36;;;;;;;14.87;8.10;;;13.40;99.90;;;;;;6094491;23;20172;-92
2023/01/11 09:37:05;;;;;;;7.47;6.73;;;13.30;99.90;;;;;;6097021;23;20145;-89
2023/01/11 09:39:33;;;;;;;8.50;7.47;;;13.20;99.90;;;;;;6094415;23;20164;-89
2023/01/11 09:42:33;;;;;;;8.93;7.10;;;13.10;99.90;;;;;;6098564;23;20172;-90
2023/01/11 09:45:26;;;;;;;9.83;7.10;;;13.10;99.90;;;;;;6095429;23;20167;-87
2023/01/11 09:48:27;;;;;;;8.23;6.70;;;13.10;99.90;;;;;;6119611;23;20169;-87
2023/01/11 09:50:59;;;;;;;10.90;7.57;;;13.10;99.90;;;;;;6048698;23;20601;-86
2023/01/11 09:53:36;;;;;;;10.07;7.73;;;13.00;99.90;;;;;;6154379;23;20174;-86
2023/01/11 09:56:10;;;;;;;9.20;7.40;;;13.00;99.90;;;;;;6093718;23;20573;-83
2023/01/11 09:59:25;;;;;;;12.43;8.53;;;12.90;99.90;;;;;;6094397;23;20160;-85
2023/01/11 10:02:04;;;;;;;9.90;7.83;;;12.90;99.90;;;;;;6114867;23;20242;-84
2023/01/11 10:04:47;;;;;;;9.90;7.60;;;12.90;99.90;;;;;;6116324;23;20164;-84
2023/01/11 10:08:09;;;;;;;8.67;7.33;;;12.80;99.90;;;;;;6153897;23;20248;-85
2023/01/11 10:10:52;;;;;;;9.70;7.93;;;12.80;99.90;;;;;;6116588;23;20164;-84
2023/01/11 10:14:06;;;;;;;13.23;8.97;;;12.70;99.90;;;;;;6115728;23;20521;-83
2023/01/11 10:17:06;;;;;;;9.93;7.83;;;12.80;99.90;;;;;;6118504;23;20561;-84
2023/01/11 10:19:46;;;;;;;12.13;8.20;;;12.80;99.90;;;;;;6093719;23;20660;-82
2023/01/11 10:22:31;;;;;;;14.20;7.90;;;12.80;99.90;;;;;;6117258;23;20494;-82
2023/01/11 10:25:46;;;;;;;15.03;8.73;;;12.70;99.90;;;;;;6093581;23;20600;-83
2023/01/11 10:28:18;;;;;;;14.43;9.27;;;12.70;99.90;;;;;;6145142;23;20223;-83
2023/01/11 10:37:11;;;;;;;11.57;9.33;;;12.60;99.90;;;;;;6118753;23;20160;-82
2023/01/11 10:43:25;;;;;;;12.07;9.00;;;12.50;99.90;;;;;;6092981;23;20511;-82
2023/01/11 10:46:20;;;;;;;12.87;9.33;;;12.50;99.90;;;;;;6035281;23;20302;-83
2023/01/11 10:49:02;;;;;;;8.23;7.20;;;12.50;99.90;;;;;;6085345;23;20156;-82
2023/01/11 10:51:43;;;;;;;7.23;6.30;;;12.50;99.90;;;;;;6093754;23;20585;-82
2023/01/11 10:54:26;;;;;;;8.40;5.67;;;12.50;99.90;;;;;;6118280;23;20592;-82
2023/01/11 10:57:13;;;;;;;8.20;6.00;;;12.50;99.90;;;;;;6095098;23;20171;-82
2023/01/11 11:00:23;;;;;;;19.53;8.80;;;12.50;99.90;;;;;;6120130;23;20255;-83
2023/01/11 11:03:18;;;;;;;7.67;6.23;;;12.40;99.90;;;;;;6094270;23;20193;-82
2023/01/11 11:06:06;;;;;;;15.90;10.17;;;12.40;99.90;;;;;;6118910;23;20161;-91
2023/01/11 11:08:58;;;;;;;8.17;5.20;;;12.40;99.90;;;;;;6120352;23;20168;-82
2023/01/11 11:11:37;;;;;;;8.23;6.07;;;12.40;99.90;;;;;;6094967;23;20161;-84
2023/01/11 11:14:28;;;;;;;7.03;5.87;;;12.40;99.90;;;;;;6119623;23;20192;-83
2023/01/11 11:17:27;;;;;;;7.67;6.33;;;12.40;99.90;;;;;;6120134;23;20495;-85
2023/01/11 11:19:57;;;;;;;9.43;5.83;;;12.40;99.90;;;;;;6095227;23;20691;-82
2023/01/11 11:22:26;;;;;;;8.60;5.73;;;12.40;99.90;;;;;;6095220;23;20494;-85
2023/01/11 11:25:28;;;;;;;7.23;6.00;;;12.40;99.90;;;;;;6142602;23;20157;-82
2023/01/11 11:28:14;;;;;;;8.00;6.20;;;12.40;99.90;;;;;;6095059;23;20165;-82
2023/01/11 11:30:49;;;;;;;7.57;6.20;;;12.40;99.90;;;;;;6094064;23;20176;-81
2023/01/11 11:33:45;;;;;;;10.83;6.53;;;12.40;99.90;;;;;;6153422;23;20664;-83
2023/01/11 11:36:16;;;;;;;9.70;6.90;;;12.40;99.90;;;;;;6117261;23;20164;-82
2023/01/11 11:39:10;;;;;;;9.77;7.50;;;12.40;99.90;;;;;;6154573;23;20752;-86
2023/01/11 11:42:14;;;;;;;12.83;9.20;;;12.40;99.90;;;;;;6092941;23;20199;-85
2023/01/11 11:44:41;;;;;;;9.90;7.87;;;12.50;99.90;;;;;;6093250;23;20259;-82
2023/01/11 11:47:18;;;;;;;9.60;8.23;;;12.50;99.90;;;;;;6118538;23;20272;-82
2023/01/11 11:49:45;;;;;;;13.00;9.60;;;12.50;99.90;;;;;;6093736;23;20209;-82
2023/01/11 11:52:16;;;;;;;13.47;8.77;;;12.50;99.90;;;;;;6118319;23;20616;-81
2023/01/11 11:54:55;;;;;;;8.80;7.90;;;12.60;99.90;;;;;;6118345;23;20168;-82
2023/01/11 11:57:33;;;;;;;10.17;9.13;;;12.60;99.90;;;;;;6118325;23;20642;-83
2023/01/11 12:00:26;;;;;;;12.97;10.00;;;12.60;99.90;;;;;;6141087;23;20160;-82
2023/01/11 12:03:14;;;;;;;17.07;11.67;;;12.60;99.90;;;;;;6093031;23;20189;-83
2023/01/11 12:05:57;;;;;;;17.33;13.97;;;12.60;99.90;;;;;;6119357;23;20168;-83
2023/01/11 12:08:29;;;;;;;13.77;12.07;;;12.60;99.90;;;;;;6118511;23;20653;-82
2023/01/11 12:11:05;;;;;;;22.07;15.10;;;12.60;99.90;;;;;;6118440;23;20227;-83
2023/01/11 12:13:56;;;;;;;19.73;15.43;;;12.60;99.90;;;;;;6091863;23;20153;-83
2023/01/11 12:16:28;;;;;;;23.87;17.87;;;12.70;99.90;;;;;;6118742;23;20285;-84
2023/01/11 12:18:55;;;;;;;24.70;17.93;;;12.70;99.90;;;;;;6093482;23;20160;-84
2023/01/11 12:21:30;;;;;;;24.47;18.27;;;12.70;99.90;;;;;;6118662;23;20161;-84
2023/01/11 12:24:18;;;;;;;28.43;20.37;;;12.70;99.90;;;;;;6117834;23;20678;-83
2023/01/11 12:27:09;;;;;;;30.37;20.40;;;12.70;99.90;;;;;;6114614;23;20161;-83
2023/01/11 12:30:09;;;;;;;24.50;19.57;;;12.70;99.90;;;;;;6115499;23;20542;-84
2023/01/11 12:33:07;;;;;;;24.60;18.90;;;12.80;99.90;;;;;;6081452;23;20169;-87
2023/01/11 12:35:45;;;;;;;24.23;18.63;;;12.70;99.90;;;;;;6154269;23;20271;-85
2023/01/11 12:38:42;;;;;;;19.97;16.53;;;12.70;99.90;;;;;;6118167;23;20528;-84
2023/01/11 12:41:50;;;;;;;25.60;16.87;;;12.70;99.90;;;;;;6093557;23;20156;-85
2023/01/11 12:44:56;;;;;;;18.00;15.73;;;12.70;99.90;;;;;;6093335;23;20468;-84
2023/01/11 12:48:23;;;;;;;20.97;16.17;;;12.60;99.90;;;;;;6117801;23;20199;-85
2023/01/11 12:51:05;;;;;;;17.73;15.10;;;12.60;99.90;;;;;;6117911;23;20165;-85
2023/01/11 12:54:13;;;;;;;16.23;13.90;;;12.60;99.90;;;;;;6094711;23;20247;-83
2023/01/11 12:56:58;;;;;;;19.63;15.80;;;12.60;99.90;;;;;;6116809;23;20173;-84
2023/01/11 13:00:07;;;;;;;18.23;15.43;;;12.60;99.90;;;;;;6118609;23;20687;-84
2023/01/11 13:03:03;;;;;;;23.20;16.03;;;12.60;99.90;;;;;;6119837;23;20184;-84
2023/01/11 13:06:17;;;;;;;17.80;15.97;;;12.50;99.90;;;;;;6117640;23;20742;-83
2023/01/11 13:08:56;;;;;;;20.77;14.50;;;12.60;99.90;;;;;;6092782;23;20171;-83
2023/01/11 13:12:07;;;;;;;20.00;16.07;;;12.60;99.90;;;;;;6093099;23;20223;-85
2023/01/11 13:14:50;;;;;;;19.80;15.07;;;12.60;99.90;;;;;;6115921;23;20251;-84
2023/01/11 13:17:36;;;;;;;20.70;15.77;;;12.50;99.90;;;;;;6116556;23;20212;-85
2023/01/11 13:20:17;;;;;;;21.20;14.97;;;12.60;99.90;;;;;;6117417;23;20157;-84
2023/01/11 13:22:57;;;;;;;20.97;15.33;;;12.60;99.90;;;;;;6117188;23;20597;-85
2023/01/11 13:25:33;;;;;;;18.83;14.80;;;12.60;99.90;;;;;;6115929;23;20648;-84
2023/01/11 13:28:17;;;;;;;21.98;17.73;;;12.60;99.90;;;;;;6092178;23;20379;-84
2023/01/11 13:30:46;;;;;;;19.37;15.70;;;12.70;99.90;;;;;;6152598;23;20179;-84
2023/01/11 13:33:22;;;;;;;19.67;15.93;;;12.70;99.90;;;;;;6114240;23;20161;-84
2023/01/11 13:36:18;;;;;;;20.20;15.20;;;12.70;99.90;;;;;;6118328;23;20168;-84
2023/01/11 13:39:14;;;;;;;21.73;14.57;;;12.70;99.90;;;;;;6118912;23;20169;-83
2023/01/11 13:41:55;;;;;;;19.87;16.63;;;12.70;99.90;;;;;;6118118;23;20176;-83
2023/01/11 13:44:35;;;;;;;29.93;18.50;;;12.70;99.90;;;;;;6116808;23;20451;-83
2023/01/11 13:47:20;;;;;;;21.87;18.30;;;12.70;99.90;;;;;;6140481;23;20211;-87
2023/01/11 13:50:03;;;;;;;24.70;19.37;;;12.60;99.90;;;;;;6090861;23;20157;-83
2023/01/11 13:52:59;;;;;;;26.27;18.10;;;12.70;99.90;;;;;;6114373;23;20752;-84
2023/01/11 13:55:58;;;;;;;25.17;19.27;;;12.70;99.90;;;;;;6113428;23;20496;-83
2023/01/11 13:58:31;;;;;;;24.53;19.07;;;12.70;99.90;;;;;;6089820;23;20196;-83
2023/01/11 14:01:16;;;;;;;27.83;18.90;;;12.60;99.90;;;;;;6115569;23;20184;-82